sensor_id;sensor_type;location;lat;lon;timestamp;temperature;humidity
16305;DHT22;8261;47.678;-122.174;2023-06-10T00:01:40;13.20;99.90
16305;DHT22;8261;47.678;-122.174;2023-06-10T00:04:11;13.30;99.90
16305;DHT22;8261;47.678;-122.174;2023-06-10T00:06:43;13.30;99.90
16305;DHT22;8261;47.678;-122.174;2023-06-10T00:09:17;13.40;99.90
16305;DHT22;8261;47.678;-122.174;2023-06-10T00:11:49;13.40;99.90
16305;DHT22;8261;47.678;-122.174;2023-06-10T00:14:22;13.20;99.90
16305;DHT22;8261;47.678;-122.174;2023-06-10T00:16:53;13.20;99.90
16305;DHT22;8261;47.678;-122.174;2023-06-10T00:19:26;13.20;99.90
16305;DHT22;8261;47.678;-122.174;2023-06-10T00:21:59;13.10;99.90
16305;DHT22;8261;47.678;-122.174;2023-06-10T00:24:30;13.10;99.90
16305;DHT22;8261;47.678;-122.174;2023-06-10T00:27:02;13.10;99.90
16305;DHT22;8261;47.678;-122.174;2023-06-10T00:29:35;13.20;99.90
16305;DHT22;8261;47.678;-122.174;2023-06-10T00:32:08;13.20;99.90
16305;DHT22;8261;47.678;-122.174;2023-06-10T00:34:39;13.20;99.90
16305;DHT22;8261;47.678;-122.174;2023-06-10T00:37:10;13.20;99.90
16305;DHT22;8261;47.678;-122.174;2023-06-10T00:39:41;13.20;99.90
16305;DHT22;8261;47.678;-122.174;2023-06-10T00:42:13;13.20;99.90
16305;DHT22;8261;47.678;-122.174;2023-06-10T00:44:46;13.30;99.90
16305;DHT22;8261;47.678;-122.174;2023-06-10T00:47:18;13.20;99.90
16305;DHT22;8261;47.678;-122.174;2023-06-10T00:49:50;13.30;99.90
16305;DHT22;8261;47.678;-122.174;2023-06-10T00:52:22;13.40;99.90
16305;DHT22;8261;47.678;-122.174;2023-06-10T00:54:57;13.40;99.90
16305;DHT22;8261;47.678;-122.174;2023-06-10T00:57:29;13.30;99.90
16305;DHT22;8261;47.678;-122.174;2023-06-10T01:00:04;13.30;99.90
16305;DHT22;8261;47.678;-122.174;2023-06-10T01:02:37;13.30;99.90
16305;DHT22;8261;47.678;-122.174;2023-06-10T01:05:09;13.30;99.90
16305;DHT22;8261;47.678;-122.174;2023-06-10T01:07:45;13.30;99.90
16305;DHT22;8261;47.678;-122.174;2023-06-10T01:10:33;13.40;99.90
16305;DHT22;8261;47.678;-122.174;2023-06-10T01:13:09;13.30;99.90
16305;DHT22;8261;47.678;-122.174;2023-06-10T01:15:43;13.50;99.90
16305;DHT22;8261;47.678;-122.174;2023-06-10T01:18:15;13.40;99.90
16305;DHT22;8261;47.678;-122.174;2023-06-10T01:20:47;13.50;99.90
16305;DHT22;8261;47.678;-122.174;2023-06-10T01:23:20;13.50;99.90
16305;DHT22;8261;47.678;-122.174;2023-06-10T01:25:55;13.50;99.90
16305;DHT22;8261;47.678;-122.174;2023-06-10T01:28:33;13.60;99.90
16305;DHT22;8261;47.678;-122.174;2023-06-10T01:31:10;13.60;99.90
16305;DHT22;8261;47.678;-122.174;2023-06-10T01:33:47;13.60;99.90
16305;DHT22;8261;47.678;-122.174;2023-06-10T01:36:19;13.60;99.90
16305;DHT22;8261;47.678;-122.174;2023-06-10T01:38:53;13.50;99.90
16305;DHT22;8261;47.678;-122.174;2023-06-10T01:41:25;13.40;99.90
16305;DHT22;8261;47.678;-122.174;2023-06-10T01:43:56;13.50;99.90
16305;DHT22;8261;47.678;-122.174;2023-06-10T01:46:27;13.50;99.90
16305;DHT22;8261;47.678;-122.174;2023-06-10T01:48:59;13.50;99.90
16305;DHT22;8261;47.678;-122.174;2023-06-10T01:51:30;13.40;99.90
16305;DHT22;8261;47.678;-122.174;2023-06-10T01:54:03;13.20;99.90
16305;DHT22;8261;47.678;-122.174;2023-06-10T01:56:34;13.10;99.90
16305;DHT22;8261;47.678;-122.174;2023-06-10T01:59:06;13.20;99.90
16305;DHT22;8261;47.678;-122.174;2023-06-10T02:01:36;13.30;99.90
16305;DHT22;8261;47.678;-122.174;2023-06-10T02:04:07;13.40;99.90
16305;DHT22;8261;47.678;-122.174;2023-06-10T02:06:38;13.40;99.90
16305;DHT22;8261;47.678;-122.174;2023-06-10T02:09:12;13.40;99.90
16305;DHT22;8261;47.678;-122.174;2023-06-10T02:11:43;13.30;99.90
16305;DHT22;8261;47.678;-122.174;2023-06-10T02:14:14;13.30;99.90
16305;DHT22;8261;47.678;-122.174;2023-06-10T02:16:45;13.30;99.90
16305;DHT22;8261;47.678;-122.174;2023-06-10T02:19:16;13.40;99.90
16305;DHT22;8261;47.678;-122.174;2023-06-10T02:21:50;13.40;99.90
16305;DHT22;8261;47.678;-122.174;2023-06-10T02:24:22;13.40;99.90
16305;DHT22;8261;47.678;-122.174;2023-06-10T02:26:53;13.40;99.90
16305;DHT22;8261;47.678;-122.174;2023-06-10T02:29:25;13.40;99.90
16305;DHT22;8261;47.678;-122.174;2023-06-10T02:31:56;13.40;99.90
16305;DHT22;8261;47.678;-122.174;2023-06-10T02:34:27;13.40;99.90
16305;DHT22;8261;47.678;-122.174;2023-06-10T02:36:59;13.30;99.90
16305;DHT22;8261;47.678;-122.174;2023-06-10T02:39:33;13.40;99.90
16305;DHT22;8261;47.678;-122.174;2023-06-10T02:42:06;13.30;99.90
16305;DHT22;8261;47.678;-122.174;2023-06-10T02:44:37;13.20;99.90
16305;DHT22;8261;47.678;-122.174;2023-06-10T02:47:08;13.30;99.90
16305;DHT22;8261;47.678;-122.174;2023-06-10T02:49:39;13.30;99.90
16305;DHT22;8261;47.678;-122.174;2023-06-10T02:52:10;13.30;99.90
16305;DHT22;8261;47.678;-122.174;2023-06-10T02:54:44;13.30;99.90
16305;DHT22;8261;47.678;-122.174;2023-06-10T02:57:15;13.40;99.90
16305;DHT22;8261;47.678;-122.174;2023-06-10T02:59:46;13.20;99.90
16305;DHT22;8261;47.678;-122.174;2023-06-10T03:02:22;13.10;99.90
16305;DHT22;8261;47.678;-122.174;2023-06-10T03:04:56;13.10;99.90
16305;DHT22;8261;47.678;-122.174;2023-06-10T03:07:28;13.10;99.90
16305;DHT22;8261;47.678;-122.174;2023-06-10T03:10:01;13.00;99.90
16305;DHT22;8261;47.678;-122.174;2023-06-10T03:12:33;13.00;99.90
16305;DHT22;8261;47.678;-122.174;2023-06-10T03:15:06;13.10;99.90
16305;DHT22;8261;47.678;-122.174;2023-06-10T03:17:39;13.10;99.90
16305;DHT22;8261;47.678;-122.174;2023-06-10T03:20:11;13.10;99.90
16305;DHT22;8261;47.678;-122.174;2023-06-10T03:22:44;13.10;99.90
16305;DHT22;8261;47.678;-122.174;2023-06-10T03:25:18;13.10;99.90
16305;DHT22;8261;47.678;-122.174;2023-06-10T03:27:52;13.10;99.90
16305;DHT22;8261;47.678;-122.174;2023-06-10T03:30:23;13.10;99.90
16305;DHT22;8261;47.678;-122.174;2023-06-10T03:32:55;13.10;99.90
16305;DHT22;8261;47.678;-122.174;2023-06-10T03:35:27;13.10;99.90
16305;DHT22;8261;47.678;-122.174;2023-06-10T03:37:58;12.90;99.90
16305;DHT22;8261;47.678;-122.174;2023-06-10T03:40:32;13.00;99.90
16305;DHT22;8261;47.678;-122.174;2023-06-10T03:43:05;13.00;99.90
16305;DHT22;8261;47.678;-122.174;2023-06-10T03:45:38;13.00;99.90
16305;DHT22;8261;47.678;-122.174;2023-06-10T03:48:14;12.90;99.90
16305;DHT22;8261;47.678;-122.174;2023-06-10T03:50:47;12.90;99.90
16305;DHT22;8261;47.678;-122.174;2023-06-10T03:53:32;13.00;99.90
16305;DHT22;8261;47.678;-122.174;2023-06-10T03:56:32;13.10;99.90
16305;DHT22;8261;47.678;-122.174;2023-06-10T03:59:04;13.00;99.90
16305;DHT22;8261;47.678;-122.174;2023-06-10T04:01:38;13.00;99.90
16305;DHT22;8261;47.678;-122.174;2023-06-10T04:04:11;13.00;99.90
16305;DHT22;8261;47.678;-122.174;2023-06-10T04:06:45;13.00;99.90
16305;DHT22;8261;47.678;-122.174;2023-06-10T04:09:18;13.00;99.90
16305;DHT22;8261;47.678;-122.174;2023-06-10T04:11:52;12.90;99.90
16305;DHT22;8261;47.678;-122.174;2023-06-10T04:14:24;12.90;99.90
16305;DHT22;8261;47.678;-122.174;2023-06-10T04:17:19;12.90;99.90
16305;DHT22;8261;47.678;-122.174;2023-06-10T04:19:58;12.80;99.90
16305;DHT22;8261;47.678;-122.174;2023-06-10T04:22:33;12.70;99.90
16305;DHT22;8261;47.678;-122.174;2023-06-10T04:25:06;12.80;99.90
16305;DHT22;8261;47.678;-122.174;2023-06-10T04:27:40;12.90;99.90
16305;DHT22;8261;47.678;-122.174;2023-06-10T04:30:13;12.70;99.90
16305;DHT22;8261;47.678;-122.174;2023-06-10T04:32:45;12.70;99.90
16305;DHT22;8261;47.678;-122.174;2023-06-10T04:35:18;12.60;99.90
16305;DHT22;8261;47.678;-122.174;2023-06-10T04:37:51;12.60;99.90
16305;DHT22;8261;47.678;-122.174;2023-06-10T04:40:23;12.50;99.90
16305;DHT22;8261;47.678;-122.174;2023-06-10T04:42:57;12.50;99.90
16305;DHT22;8261;47.678;-122.174;2023-06-10T04:45:29;12.50;99.90
16305;DHT22;8261;47.678;-122.174;2023-06-10T04:48:00;12.50;99.90
16305;DHT22;8261;47.678;-122.174;2023-06-10T04:50:32;12.50;99.90
16305;DHT22;8261;47.678;-122.174;2023-06-10T04:53:05;12.50;99.90
16305;DHT22;8261;47.678;-122.174;2023-06-10T04:55:37;12.50;99.90
16305;DHT22;8261;47.678;-122.174;2023-06-10T04:58:12;12.50;99.90
16305;DHT22;8261;47.678;-122.174;2023-06-10T05:00:44;12.50;99.90
16305;DHT22;8261;47.678;-122.174;2023-06-10T05:03:16;12.50;99.90
16305;DHT22;8261;47.678;-122.174;2023-06-10T05:05:52;12.50;99.90
16305;DHT22;8261;47.678;-122.174;2023-06-10T05:08:26;12.50;99.90
16305;DHT22;8261;47.678;-122.174;2023-06-10T05:11:01;12.50;99.90
16305;DHT22;8261;47.678;-122.174;2023-06-10T05:13:35;12.40;99.90
16305;DHT22;8261;47.678;-122.174;2023-06-10T05:16:09;12.50;99.90
16305;DHT22;8261;47.678;-122.174;2023-06-10T05:18:42;12.50;99.90
16305;DHT22;8261;47.678;-122.174;2023-06-10T05:21:15;12.40;99.90
16305;DHT22;8261;47.678;-122.174;2023-06-10T05:23:47;12.40;99.90
16305;DHT22;8261;47.678;-122.174;2023-06-10T05:26:18;12.40;99.90
16305;DHT22;8261;47.678;-122.174;2023-06-10T05:28:51;12.50;99.90
16305;DHT22;8261;47.678;-122.174;2023-06-10T05:31:23;12.50;99.90
16305;DHT22;8261;47.678;-122.174;2023-06-10T05:33:55;12.50;99.90
16305;DHT22;8261;47.678;-122.174;2023-06-10T05:36:27;12.50;99.90
16305;DHT22;8261;47.678;-122.174;2023-06-10T05:39:01;12.60;99.90
16305;DHT22;8261;47.678;-122.174;2023-06-10T05:41:33;12.60;99.90
16305;DHT22;8261;47.678;-122.174;2023-06-10T05:44:08;12.60;99.90
16305;DHT22;8261;47.678;-122.174;2023-06-10T05:46:41;12.60;99.90
16305;DHT22;8261;47.678;-122.174;2023-06-10T05:49:13;12.60;99.90
16305;DHT22;8261;47.678;-122.174;2023-06-10T05:51:45;12.60;99.90
16305;DHT22;8261;47.678;-122.174;2023-06-10T05:54:19;12.70;99.90
16305;DHT22;8261;47.678;-122.174;2023-06-10T05:56:50;12.70;99.90
16305;DHT22;8261;47.678;-122.174;2023-06-10T05:59:24;12.80;99.90
16305;DHT22;8261;47.678;-122.174;2023-06-10T06:01:55;12.70;99.90
16305;DHT22;8261;47.678;-122.174;2023-06-10T06:04:28;12.70;99.90
16305;DHT22;8261;47.678;-122.174;2023-06-10T06:06:59;12.60;99.90
16305;DHT22;8261;47.678;-122.174;2023-06-10T06:09:30;12.70;99.90
16305;DHT22;8261;47.678;-122.174;2023-06-10T06:12:01;12.70;99.90
16305;DHT22;8261;47.678;-122.174;2023-06-10T06:14:38;12.70;99.90
16305;DHT22;8261;47.678;-122.174;2023-06-10T06:17:10;12.70;99.90
16305;DHT22;8261;47.678;-122.174;2023-06-10T06:19:41;12.70;99.90
16305;DHT22;8261;47.678;-122.174;2023-06-10T06:22:12;12.70;99.90
16305;DHT22;8261;47.678;-122.174;2023-06-10T06:24:44;12.70;99.90
16305;DHT22;8261;47.678;-122.174;2023-06-10T06:27:16;12.70;99.90
16305;DHT22;8261;47.678;-122.174;2023-06-10T06:29:50;12.70;99.90
16305;DHT22;8261;47.678;-122.174;2023-06-10T06:32:26;12.70;99.90
16305;DHT22;8261;47.678;-122.174;2023-06-10T06:34:58;12.80;99.90
16305;DHT22;8261;47.678;-122.174;2023-06-10T06:37:29;12.70;99.90
16305;DHT22;8261;47.678;-122.174;2023-06-10T06:40:01;12.70;99.90
16305;DHT22;8261;47.678;-122.174;2023-06-10T06:42:33;12.80;99.90
16305;DHT22;8261;47.678;-122.174;2023-06-10T06:45:08;12.70;99.90
16305;DHT22;8261;47.678;-122.174;2023-06-10T06:47:40;12.70;99.90
16305;DHT22;8261;47.678;-122.174;2023-06-10T06:50:12;12.60;99.90
16305;DHT22;8261;47.678;-122.174;2023-06-10T06:52:45;12.70;99.90
16305;DHT22;8261;47.678;-122.174;2023-06-10T06:55:17;12.70;99.90
16305;DHT22;8261;47.678;-122.174;2023-06-10T06:57:48;12.70;99.90
16305;DHT22;8261;47.678;-122.174;2023-06-10T07:00:24;12.70;99.90
16305;DHT22;8261;47.678;-122.174;2023-06-10T07:02:57;12.60;99.90
16305;DHT22;8261;47.678;-122.174;2023-06-10T07:05:28;12.70;99.90
16305;DHT22;8261;47.678;-122.174;2023-06-10T07:08:01;12.60;99.90
16305;DHT22;8261;47.678;-122.174;2023-06-10T07:10:41;12.60;99.90
16305;DHT22;8261;47.678;-122.174;2023-06-10T07:13:12;12.50;99.90
16305;DHT22;8261;47.678;-122.174;2023-06-10T07:15:46;12.60;99.90
16305;DHT22;8261;47.678;-122.174;2023-06-10T07:18:18;12.50;99.90
16305;DHT22;8261;47.678;-122.174;2023-06-10T07:20:52;12.50;99.90
16305;DHT22;8261;47.678;-122.174;2023-06-10T07:23:24;12.50;99.90
16305;DHT22;8261;47.678;-122.174;2023-06-10T07:25:56;12.50;99.90
16305;DHT22;8261;47.678;-122.174;2023-06-10T07:28:28;12.60;99.90
16305;DHT22;8261;47.678;-122.174;2023-06-10T07:31:03;12.50;99.90
16305;DHT22;8261;47.678;-122.174;2023-06-10T07:33:35;12.50;99.90
16305;DHT22;8261;47.678;-122.174;2023-06-10T07:36:09;12.60;99.90
16305;DHT22;8261;47.678;-122.174;2023-06-10T07:38:41;12.50;99.90
16305;DHT22;8261;47.678;-122.174;2023-06-10T07:41:14;12.50;99.90
16305;DHT22;8261;47.678;-122.174;2023-06-10T07:43:47;12.50;99.90
16305;DHT22;8261;47.678;-122.174;2023-06-10T07:46:25;12.50;99.90
16305;DHT22;8261;47.678;-122.174;2023-06-10T07:48:57;12.30;99.90
16305;DHT22;8261;47.678;-122.174;2023-06-10T07:51:29;12.30;99.90
16305;DHT22;8261;47.678;-122.174;2023-06-10T07:54:00;12.20;99.90
16305;DHT22;8261;47.678;-122.174;2023-06-10T07:56:32;12.20;99.90
16305;DHT22;8261;47.678;-122.174;2023-06-10T07:59:04;12.30;99.90
16305;DHT22;8261;47.678;-122.174;2023-06-10T08:01:37;12.30;99.90
16305;DHT22;8261;47.678;-122.174;2023-06-10T08:04:09;12.30;99.90
16305;DHT22;8261;47.678;-122.174;2023-06-10T08:06:41;12.30;99.90
16305;DHT22;8261;47.678;-122.174;2023-06-10T08:09:13;12.30;99.90
16305;DHT22;8261;47.678;-122.174;2023-06-10T08:11:46;12.30;99.90
16305;DHT22;8261;47.678;-122.174;2023-06-10T08:14:19;12.20;99.90
16305;DHT22;8261;47.678;-122.174;2023-06-10T08:16:52;12.20;99.90
16305;DHT22;8261;47.678;-122.174;2023-06-10T08:19:23;12.20;99.90
16305;DHT22;8261;47.678;-122.174;2023-06-10T08:21:56;12.30;99.90
16305;DHT22;8261;47.678;-122.174;2023-06-10T08:24:27;12.20;99.90
16305;DHT22;8261;47.678;-122.174;2023-06-10T08:26:59;12.20;99.90
16305;DHT22;8261;47.678;-122.174;2023-06-10T08:29:31;12.20;99.90
16305;DHT22;8261;47.678;-122.174;2023-06-10T08:32:05;12.30;99.90
16305;DHT22;8261;47.678;-122.174;2023-06-10T08:34:38;12.30;99.90
16305;DHT22;8261;47.678;-122.174;2023-06-10T08:37:09;12.30;99.90
16305;DHT22;8261;47.678;-122.174;2023-06-10T08:39:41;12.30;99.90
16305;DHT22;8261;47.678;-122.174;2023-06-10T08:42:21;12.30;99.90
16305;DHT22;8261;47.678;-122.174;2023-06-10T08:44:55;12.30;99.90
16305;DHT22;8261;47.678;-122.174;2023-06-10T08:47:35;12.30;99.90
16305;DHT22;8261;47.678;-122.174;2023-06-10T08:50:10;12.30;99.90
16305;DHT22;8261;47.678;-122.174;2023-06-10T08:52:44;12.40;99.90
16305;DHT22;8261;47.678;-122.174;2023-06-10T08:55:19;12.30;99.90
16305;DHT22;8261;47.678;-122.174;2023-06-10T08:58:00;12.20;99.90
16305;DHT22;8261;47.678;-122.174;2023-06-10T09:00:32;12.20;99.90
16305;DHT22;8261;47.678;-122.174;2023-06-10T09:03:07;12.20;99.90
16305;DHT22;8261;47.678;-122.174;2023-06-10T09:05:38;12.30;99.90
16305;DHT22;8261;47.678;-122.174;2023-06-10T09:08:10;12.20;99.90
16305;DHT22;8261;47.678;-122.174;2023-06-10T09:10:42;12.20;99.90
16305;DHT22;8261;47.678;-122.174;2023-06-10T09:13:14;12.20;99.90
16305;DHT22;8261;47.678;-122.174;2023-06-10T09:15:47;12.10;99.90
16305;DHT22;8261;47.678;-122.174;2023-06-10T09:18:22;12.10;99.90
16305;DHT22;8261;47.678;-122.174;2023-06-10T09:20:53;12.10;99.90
16305;DHT22;8261;47.678;-122.174;2023-06-10T09:23:26;12.10;99.90
16305;DHT22;8261;47.678;-122.174;2023-06-10T09:25:58;12.10;99.90
16305;DHT22;8261;47.678;-122.174;2023-06-10T09:28:30;12.10;99.90
16305;DHT22;8261;47.678;-122.174;2023-06-10T09:31:08;12.10;99.90
16305;DHT22;8261;47.678;-122.174;2023-06-10T09:33:42;12.20;99.90
16305;DHT22;8261;47.678;-122.174;2023-06-10T09:36:22;12.10;99.90
16305;DHT22;8261;47.678;-122.174;2023-06-10T09:38:57;12.20;99.90
16305;DHT22;8261;47.678;-122.174;2023-06-10T09:41:33;12.30;99.90
16305;DHT22;8261;47.678;-122.174;2023-06-10T09:44:11;12.30;99.90
16305;DHT22;8261;47.678;-122.174;2023-06-10T09:46:46;12.20;99.90
16305;DHT22;8261;47.678;-122.174;2023-06-10T09:49:20;12.30;99.90
16305;DHT22;8261;47.678;-122.174;2023-06-10T09:51:52;12.30;99.90
16305;DHT22;8261;47.678;-122.174;2023-06-10T09:54:24;12.40;99.90
16305;DHT22;8261;47.678;-122.174;2023-06-10T09:57:07;12.40;99.90
16305;DHT22;8261;47.678;-122.174;2023-06-10T09:59:41;12.20;99.90
16305;DHT22;8261;47.678;-122.174;2023-06-10T10:02:18;12.20;99.90
16305;DHT22;8261;47.678;-122.174;2023-06-10T10:04:52;12.30;99.90
16305;DHT22;8261;47.678;-122.174;2023-06-10T10:07:24;12.40;99.90
16305;DHT22;8261;47.678;-122.174;2023-06-10T10:09:57;12.40;99.90
16305;DHT22;8261;47.678;-122.174;2023-06-10T10:12:28;12.40;99.90
16305;DHT22;8261;47.678;-122.174;2023-06-10T10:15:01;12.30;99.90
16305;DHT22;8261;47.678;-122.174;2023-06-10T10:17:34;12.40;99.90
16305;DHT22;8261;47.678;-122.174;2023-06-10T10:20:14;12.40;99.90
16305;DHT22;8261;47.678;-122.174;2023-06-10T10:22:51;12.30;99.90
16305;DHT22;8261;47.678;-122.174;2023-06-10T10:25:25;12.30;99.90
16305;DHT22;8261;47.678;-122.174;2023-06-10T10:28:02;12.20;99.90
16305;DHT22;8261;47.678;-122.174;2023-06-10T10:30:40;12.20;99.90
16305;DHT22;8261;47.678;-122.174;2023-06-10T10:33:17;12.20;99.90
16305;DHT22;8261;47.678;-122.174;2023-06-10T10:35:53;12.20;99.90
16305;DHT22;8261;47.678;-122.174;2023-06-10T10:38:26;12.20;99.90
16305;DHT22;8261;47.678;-122.174;2023-06-10T10:40:59;12.10;99.90
16305;DHT22;8261;47.678;-122.174;2023-06-10T10:43:31;12.20;99.90
16305;DHT22;8261;47.678;-122.174;2023-06-10T10:46:08;12.20;99.90
16305;DHT22;8261;47.678;-122.174;2023-06-10T10:48:40;12.30;99.90
16305;DHT22;8261;47.678;-122.174;2023-06-10T10:51:16;12.20;99.90
16305;DHT22;8261;47.678;-122.174;2023-06-10T10:54:11;12.10;99.90
16305;DHT22;8261;47.678;-122.174;2023-06-10T10:57:11;12.10;99.90
16305;DHT22;8261;47.678;-122.174;2023-06-10T10:59:52;12.10;99.90
16305;DHT22;8261;47.678;-122.174;2023-06-10T11:02:36;12.00;99.90
16305;DHT22;8261;47.678;-122.174;2023-06-10T11:05:10;12.10;99.90
16305;DHT22;8261;47.678;-122.174;2023-06-10T11:07:54;12.10;99.90
16305;DHT22;8261;47.678;-122.174;2023-06-10T11:10:32;12.10;99.90
16305;DHT22;8261;47.678;-122.174;2023-06-10T11:13:08;12.10;99.90
16305;DHT22;8261;47.678;-122.174;2023-06-10T11:15:45;12.00;99.90
16305;DHT22;8261;47.678;-122.174;2023-06-10T11:18:23;12.00;99.90
16305;DHT22;8261;47.678;-122.174;2023-06-10T11:20:57;12.10;99.90
16305;DHT22;8261;47.678;-122.174;2023-06-10T11:23:40;12.20;99.90
16305;DHT22;8261;47.678;-122.174;2023-06-10T11:26:30;12.20;99.90
16305;DHT22;8261;47.678;-122.174;2023-06-10T11:29:08;12.20;99.90
16305;DHT22;8261;47.678;-122.174;2023-06-10T11:31:45;12.20;99.90
16305;DHT22;8261;47.678;-122.174;2023-06-10T11:34:22;12.10;99.90
16305;DHT22;8261;47.678;-122.174;2023-06-10T11:36:56;11.90;99.90
16305;DHT22;8261;47.678;-122.174;2023-06-10T11:39:30;11.90;99.90
16305;DHT22;8261;47.678;-122.174;2023-06-10T11:42:03;11.90;99.90
16305;DHT22;8261;47.678;-122.174;2023-06-10T11:44:35;11.90;99.90
16305;DHT22;8261;47.678;-122.174;2023-06-10T11:47:09;11.90;99.90
16305;DHT22;8261;47.678;-122.174;2023-06-10T11:49:42;11.90;99.90
16305;DHT22;8261;47.678;-122.174;2023-06-10T11:52:17;11.90;99.90
16305;DHT22;8261;47.678;-122.174;2023-06-10T11:54:55;11.90;99.90
16305;DHT22;8261;47.678;-122.174;2023-06-10T11:57:27;11.90;99.90
16305;DHT22;8261;47.678;-122.174;2023-06-10T12:00:05;12.00;99.90
16305;DHT22;8261;47.678;-122.174;2023-06-10T12:02:37;12.00;99.90
16305;DHT22;8261;47.678;-122.174;2023-06-10T12:05:12;11.90;99.90
16305;DHT22;8261;47.678;-122.174;2023-06-10T12:07:44;11.90;99.90
16305;DHT22;8261;47.678;-122.174;2023-06-10T12:10:19;11.80;99.90
16305;DHT22;8261;47.678;-122.174;2023-06-10T12:12:54;11.80;99.90
16305;DHT22;8261;47.678;-122.174;2023-06-10T12:15:26;11.80;99.90
16305;DHT22;8261;47.678;-122.174;2023-06-10T12:17:58;11.70;99.90
16305;DHT22;8261;47.678;-122.174;2023-06-10T12:20:31;11.70;99.90
16305;DHT22;8261;47.678;-122.174;2023-06-10T12:23:10;11.70;99.90
16305;DHT22;8261;47.678;-122.174;2023-06-10T12:25:50;11.60;99.90
16305;DHT22;8261;47.678;-122.174;2023-06-10T12:28:23;11.60;99.90
16305;DHT22;8261;47.678;-122.174;2023-06-10T12:31:07;11.60;99.90
16305;DHT22;8261;47.678;-122.174;2023-06-10T12:33:38;11.70;99.90
16305;DHT22;8261;47.678;-122.174;2023-06-10T12:36:16;11.70;99.90
16305;DHT22;8261;47.678;-122.174;2023-06-10T12:38:51;11.70;99.90
16305;DHT22;8261;47.678;-122.174;2023-06-10T12:41:24;11.80;99.90
16305;DHT22;8261;47.678;-122.174;2023-06-10T12:43:57;11.80;99.90
16305;DHT22;8261;47.678;-122.174;2023-06-10T12:46:36;11.80;99.90
16305;DHT22;8261;47.678;-122.174;2023-06-10T12:49:08;11.80;99.90
16305;DHT22;8261;47.678;-122.174;2023-06-10T12:51:49;11.80;99.90
16305;DHT22;8261;47.678;-122.174;2023-06-10T12:54:21;11.90;99.90
16305;DHT22;8261;47.678;-122.174;2023-06-10T12:56:55;11.90;99.90
16305;DHT22;8261;47.678;-122.174;2023-06-10T12:59:27;11.70;99.90
16305;DHT22;8261;47.678;-122.174;2023-06-10T13:01:58;11.70;99.90
16305;DHT22;8261;47.678;-122.174;2023-06-10T13:04:30;11.70;99.90
16305;DHT22;8261;47.678;-122.174;2023-06-10T13:07:01;11.70;99.90
16305;DHT22;8261;47.678;-122.174;2023-06-10T13:09:33;11.70;99.90
16305;DHT22;8261;47.678;-122.174;2023-06-10T13:12:08;11.70;99.90
16305;DHT22;8261;47.678;-122.174;2023-06-10T13:14:43;11.70;99.90
16305;DHT22;8261;47.678;-122.174;2023-06-10T13:17:15;11.70;99.90
16305;DHT22;8261;47.678;-122.174;2023-06-10T13:19:46;11.70;99.90
16305;DHT22;8261;47.678;-122.174;2023-06-10T13:22:18;11.70;99.90
16305;DHT22;8261;47.678;-122.174;2023-06-10T13:24:50;11.60;99.90
16305;DHT22;8261;47.678;-122.174;2023-06-10T13:27:24;11.60;99.90
16305;DHT22;8261;47.678;-122.174;2023-06-10T13:29:56;11.70;99.90
16305;DHT22;8261;47.678;-122.174;2023-06-10T13:32:27;11.70;99.90
16305;DHT22;8261;47.678;-122.174;2023-06-10T13:34:59;11.60;99.90
16305;DHT22;8261;47.678;-122.174;2023-06-10T13:37:32;11.60;99.90
16305;DHT22;8261;47.678;-122.174;2023-06-10T13:40:05;11.60;99.90
16305;DHT22;8261;47.678;-122.174;2023-06-10T13:42:39;11.50;99.90
16305;DHT22;8261;47.678;-122.174;2023-06-10T13:45:10;11.60;99.90
16305;DHT22;8261;47.678;-122.174;2023-06-10T13:47:42;11.70;99.90
16305;DHT22;8261;47.678;-122.174;2023-06-10T13:50:13;11.70;99.90
16305;DHT22;8261;47.678;-122.174;2023-06-10T13:52:44;11.60;99.90
16305;DHT22;8261;47.678;-122.174;2023-06-10T13:55:16;11.60;99.90
16305;DHT22;8261;47.678;-122.174;2023-06-10T13:57:51;11.60;99.90
16305;DHT22;8261;47.678;-122.174;2023-06-10T14:00:22;11.60;99.90
16305;DHT22;8261;47.678;-122.174;2023-06-10T14:02:54;11.60;99.90
16305;DHT22;8261;47.678;-122.174;2023-06-10T14:05:25;11.70;99.90
16305;DHT22;8261;47.678;-122.174;2023-06-10T14:07:59;11.70;99.90
16305;DHT22;8261;47.678;-122.174;2023-06-10T14:10:30;11.70;99.90
16305;DHT22;8261;47.678;-122.174;2023-06-10T14:13:03;11.70;99.90
16305;DHT22;8261;47.678;-122.174;2023-06-10T14:15:35;11.70;99.90
16305;DHT22;8261;47.678;-122.174;2023-06-10T14:18:06;11.80;99.90
16305;DHT22;8261;47.678;-122.174;2023-06-10T14:20:39;11.80;99.90
16305;DHT22;8261;47.678;-122.174;2023-06-10T14:23:10;11.80;99.90
16305;DHT22;8261;47.678;-122.174;2023-06-10T14:25:41;11.80;99.90
16305;DHT22;8261;47.678;-122.174;2023-06-10T14:28:18;11.70;99.90
16305;DHT22;8261;47.678;-122.174;2023-06-10T14:30:50;11.60;99.90
16305;DHT22;8261;47.678;-122.174;2023-06-10T14:33:26;11.60;99.90
16305;DHT22;8261;47.678;-122.174;2023-06-10T14:35:58;11.70;99.90
16305;DHT22;8261;47.678;-122.174;2023-06-10T14:38:29;11.80;99.90
16305;DHT22;8261;47.678;-122.174;2023-06-10T14:41:01;11.70;99.90
16305;DHT22;8261;47.678;-122.174;2023-06-10T14:43:35;11.60;99.90
16305;DHT22;8261;47.678;-122.174;2023-06-10T14:46:06;11.50;99.90
16305;DHT22;8261;47.678;-122.174;2023-06-10T14:48:37;11.60;99.90
16305;DHT22;8261;47.678;-122.174;2023-06-10T14:51:09;11.50;99.90
16305;DHT22;8261;47.678;-122.174;2023-06-10T14:53:41;11.50;99.90
16305;DHT22;8261;47.678;-122.174;2023-06-10T14:56:14;11.60;99.90
16305;DHT22;8261;47.678;-122.174;2023-06-10T14:58:48;11.60;99.90
16305;DHT22;8261;47.678;-122.174;2023-06-10T15:01:20;11.60;99.90
16305;DHT22;8261;47.678;-122.174;2023-06-10T15:03:52;11.60;99.90
16305;DHT22;8261;47.678;-122.174;2023-06-10T15:06:24;11.60;99.90
16305;DHT22;8261;47.678;-122.174;2023-06-10T15:08:56;11.70;99.90
16305;DHT22;8261;47.678;-122.174;2023-06-10T15:11:40;11.70;99.90
16305;DHT22;8261;47.678;-122.174;2023-06-10T15:14:12;11.60;99.90
16305;DHT22;8261;47.678;-122.174;2023-06-10T15:16:44;11.60;99.90
16305;DHT22;8261;47.678;-122.174;2023-06-10T15:19:16;11.60;99.90
16305;DHT22;8261;47.678;-122.174;2023-06-10T15:21:47;11.70;99.90
16305;DHT22;8261;47.678;-122.174;2023-06-10T15:24:18;11.80;99.90
16305;DHT22;8261;47.678;-122.174;2023-06-10T15:26:50;11.70;99.90
16305;DHT22;8261;47.678;-122.174;2023-06-10T15:29:23;11.60;99.90
16305;DHT22;8261;47.678;-122.174;2023-06-10T15:31:54;11.70;99.90
16305;DHT22;8261;47.678;-122.174;2023-06-10T15:34:25;11.70;99.90
16305;DHT22;8261;47.678;-122.174;2023-06-10T15:36:56;11.70;99.90
16305;DHT22;8261;47.678;-122.174;2023-06-10T15:39:27;11.90;99.90
16305;DHT22;8261;47.678;-122.174;2023-06-10T15:42:00;11.90;99.90